N567CC KLAL-
Flight info
| Callsign | N567CC |
|---|---|
| Flight time | N/A |
| Altitude | |
| Route | |
| Aircraft | GYRO/L-VGD/C |
Departure
| Time | 2026-04-22 00:51 |
|---|---|
| Airport | Lakeland Linder International Airport (KLAL) |
Arrival
| Time | N/A |
|---|---|
| Airport | - |
| Time | Latitude | Longitude | Altitude | Speed | Heading |
|---|---|---|---|---|---|
| 2026-04-22 00:37 | 27.98328 | -82.01639 | 141 ft | 9 kts | 269° |
| 2026-04-22 00:37 | 27.98328 | -82.01682 | 141 ft | 6 kts | 270° |
| 2026-04-22 00:38 | 27.98326 | -82.01737 | 141 ft | 8 kts | 269° |
| 2026-04-22 00:38 | 27.98324 | -82.01809 | 141 ft | 10 kts | 266° |
| 2026-04-22 00:38 | 27.98322 | -82.01885 | 141 ft | 8 kts | 272° |
| 2026-04-22 00:38 | 27.98322 | -82.01931 | 141 ft | 5 kts | 269° |
| 2026-04-22 00:39 | 27.98323 | -82.01979 | 141 ft | 7 kts | 277° |
| 2026-04-22 00:39 | 27.98349 | -82.02024 | 142 ft | 7 kts | 315° |
| 2026-04-22 00:39 | 27.98390 | -82.02072 | 141 ft | 10 kts | 315° |
| 2026-04-22 00:39 | 27.98439 | -82.02103 | 141 ft | 5 kts | 32° |
| 2026-04-22 00:40 | 27.98452 | -82.02092 | 141 ft | 4 kts | 42° |
| 2026-04-22 00:40 | 27.98474 | -82.02067 | 141 ft | 4 kts | 45° |
| 2026-04-22 00:40 | 27.98496 | -82.02043 | 141 ft | 4 kts | 45° |
| 2026-04-22 00:40 | 27.98519 | -82.02018 | 141 ft | 4 kts | 44° |
| 2026-04-22 00:41 | 27.98540 | -82.01994 | 141 ft | 4 kts | 41° |
| 2026-04-22 00:41 | 27.98567 | -82.01978 | 141 ft | 5 kts | 21° |
| 2026-04-22 00:41 | 27.98599 | -82.01964 | 141 ft | 8 kts | 25° |
| 2026-04-22 00:41 | 27.98645 | -82.01943 | 141 ft | 11 kts | 27° |
| 2026-04-22 00:42 | 27.98686 | -82.01930 | 141 ft | 6 kts | 5° |
| 2026-04-22 00:42 | 27.98729 | -82.01936 | 141 ft | 6 kts | 305° |
| 2026-04-22 00:42 | 27.98732 | -82.01960 | 141 ft | 3 kts | 268° |
| 2026-04-22 00:42 | 27.98731 | -82.01996 | 141 ft | 6 kts | 273° |
| 2026-04-22 00:43 | 27.98732 | -82.02050 | 141 ft | 7 kts | 268° |
| 2026-04-22 00:43 | 27.98731 | -82.02116 | 141 ft | 9 kts | 267° |
| 2026-04-22 00:43 | 27.98731 | -82.02196 | 141 ft | 10 kts | 266° |
| 2026-04-22 00:43 | 27.98732 | -82.02261 | 141 ft | 9 kts | 275° |
| 2026-04-22 00:44 | 27.98774 | -82.02291 | 141 ft | 6 kts | 1° |
| 2026-04-22 00:44 | 27.98817 | -82.02321 | 140 ft | 9 kts | 284° |
| 2026-04-22 00:44 | 27.98818 | -82.02390 | 140 ft | 8 kts | 271° |
| 2026-04-22 00:44 | 27.98817 | -82.02452 | 140 ft | 8 kts | 270° |
| 2026-04-22 00:45 | 27.98818 | -82.02516 | 140 ft | 7 kts | 274° |
| 2026-04-22 00:45 | 27.98817 | -82.02581 | 140 ft | 9 kts | 267° |
| 2026-04-22 00:45 | 27.98815 | -82.02660 | 140 ft | 11 kts | 270° |
| 2026-04-22 00:45 | 27.98814 | -82.02736 | 140 ft | 7 kts | 272° |
| 2026-04-22 00:46 | 27.98815 | -82.02795 | 140 ft | 9 kts | 269° |
| 2026-04-22 00:46 | 27.98814 | -82.02862 | 140 ft | 9 kts | 272° |
| 2026-04-22 00:46 | 27.98814 | -82.02927 | 141 ft | 6 kts | 266° |
| 2026-04-22 00:46 | 27.98813 | -82.02981 | 141 ft | 7 kts | 277° |
| 2026-04-22 00:47 | 27.98816 | -82.03047 | 141 ft | 9 kts | 268° |
| 2026-04-22 00:47 | 27.98814 | -82.03126 | 141 ft | 11 kts | 270° |
| 2026-04-22 00:47 | 27.98813 | -82.03218 | 141 ft | 13 kts | 269° |
| 2026-04-22 00:47 | 27.98815 | -82.03293 | 141 ft | 8 kts | 275° |
| 2026-04-22 00:48 | 27.98826 | -82.03345 | 141 ft | 8 kts | 323° |
| 2026-04-22 00:48 | 27.98864 | -82.03352 | 141 ft | 0 kts | 358° |
| 2026-04-22 00:49 | 27.98889 | -82.03351 | 142 ft | 6 kts | 7° |
| 2026-04-22 00:49 | 27.98922 | -82.03330 | 142 ft | 7 kts | 66° |
| 2026-04-22 00:49 | 27.98933 | -82.03115 | 198 ft | 42 kts | 89° |
| 2026-04-22 00:49 | 27.98940 | -82.02755 | 308 ft | 48 kts | 92° |
| 2026-04-22 00:50 | 27.98935 | -82.02344 | 365 ft | 55 kts | 92° |
| 2026-04-22 00:50 | 27.98924 | -82.01904 | 436 ft | 58 kts | 91° |
| 2026-04-22 00:50 | 27.98948 | -82.01432 | 497 ft | 57 kts | 88° |
| 2026-04-22 00:50 | 27.98966 | -82.00980 | 579 ft | 59 kts | 92° |
| 2026-04-22 00:51 | 27.98943 | -82.00521 | 673 ft | 56 kts | 97° |
| 2026-04-22 00:51 | 27.98911 | -82.00085 | 745 ft | 55 kts | 94° |
| 2026-04-22 00:51 | 27.98855 | -81.99690 | 855 ft | 49 kts | 102° |
| 2026-04-22 00:51 | 27.98807 | -81.99288 | 990 ft | 52 kts | 86° |
| 2026-04-22 00:52 | 27.98829 | -81.98902 | 1170 ft | 45 kts | 86° |
| 2026-04-22 00:52 | 27.98829 | -81.98509 | 1286 ft | 52 kts | 89° |
| 2026-04-22 00:52 | 27.98816 | -81.98090 | 1364 ft | 54 kts | 92° |
| 2026-04-22 00:52 | 27.98802 | -81.97677 | 1450 ft | 53 kts | 89° |
| 2026-04-22 00:53 | 27.98821 | -81.97255 | 1509 ft | 54 kts | 87° |
| 2026-04-22 00:53 | 27.98825 | -81.96854 | 1574 ft | 49 kts | 88° |
| 2026-04-22 00:53 | 27.98823 | -81.96467 | 1641 ft | 47 kts | 97° |
| 2026-04-22 00:53 | 27.98805 | -81.96098 | 1828 ft | 44 kts | 91° |
| 2026-04-22 00:54 | 27.98783 | -81.95722 | 1941 ft | 51 kts | 93° |
| 2026-04-22 00:54 | 27.98772 | -81.95330 | 2047 ft | 51 kts | 93° |
| 2026-04-22 00:54 | 27.98698 | -81.94950 | 2135 ft | 44 kts | 91° |
| 2026-04-22 00:54 | 27.98737 | -81.94582 | 2181 ft | 48 kts | 87° |
| 2026-04-22 00:55 | 27.98723 | -81.94229 | 2355 ft | 39 kts | 92° |
| 2026-04-22 00:55 | 27.98756 | -81.93910 | 2523 ft | 48 kts | 84° |
| 2026-04-22 00:55 | 27.98850 | -81.93119 | 2720 ft | 54 kts | 88° |
| 2026-04-22 00:56 | 27.98722 | -81.92745 | 2805 ft | 58 kts | 118° |
| 2026-04-22 00:56 | 27.98397 | -81.92460 | 2904 ft | 53 kts | 135° |
| 2026-04-22 00:56 | 27.98043 | -81.92281 | 3109 ft | 60 kts | 141° |
| 2026-04-22 00:56 | 27.97612 | -81.92076 | 3088 ft | 69 kts | 140° |
| 2026-04-22 00:57 | 27.97223 | -81.91817 | 3094 ft | 62 kts | 136° |
| 2026-04-22 00:57 | 27.96841 | -81.91610 | 3059 ft | 63 kts | 143° |
| 2026-04-22 00:57 | 27.96456 | -81.91445 | 3222 ft | 56 kts | 141° |
| 2026-04-22 00:57 | 27.96107 | -81.91294 | 3461 ft | 51 kts | 141° |
| 2026-04-22 00:58 | 27.95768 | -81.91084 | 3563 ft | 63 kts | 131° |
| 2026-04-22 00:58 | 27.95427 | -81.90774 | 3643 ft | 66 kts | 128° |
| 2026-04-22 00:58 | 27.95024 | -81.90453 | 3547 ft | 73 kts | 136° |
| 2026-04-22 00:58 | 27.94601 | -81.90225 | 3646 ft | 62 kts | 140° |
| 2026-04-22 00:59 | 27.94220 | -81.90024 | 3786 ft | 58 kts | 140° |
| 2026-04-22 00:59 | 27.93851 | -81.89830 | 3777 ft | 62 kts | 140° |
| 2026-04-22 00:59 | 27.93447 | -81.89561 | 3730 ft | 73 kts | 135° |
| 2026-04-22 00:59 | 27.93004 | -81.89208 | 3345 ft | 78 kts | 134° |
| 2026-04-22 01:00 | 27.92593 | -81.88923 | 3323 ft | 68 kts | 137° |
| 2026-04-22 01:00 | 27.92137 | -81.88643 | 3141 ft | 64 kts | 144° |
| 2026-04-22 01:00 | 27.91723 | -81.88606 | 3421 ft | 57 kts | 159° |
| 2026-04-22 01:00 | 27.91335 | -81.88610 | 3561 ft | 58 kts | 162° |
| 2026-04-22 01:01 | 27.90894 | -81.88607 | 3587 ft | 66 kts | 162° |
| 2026-04-22 01:01 | 27.90428 | -81.88581 | 3635 ft | 66 kts | 158° |
| 2026-04-22 01:01 | 27.89946 | -81.88538 | 3647 ft | 74 kts | 156° |
| 2026-04-22 01:01 | 27.89411 | -81.88424 | 3463 ft | 81 kts | 155° |
| 2026-04-22 01:02 | 27.88901 | -81.88272 | 3373 ft | 70 kts | 148° |
| 2026-04-22 01:02 | 27.88481 | -81.88130 | 3462 ft | 63 kts | 149° |
| 2026-04-22 01:02 | 27.88043 | -81.88081 | 3545 ft | 64 kts | 158° |
| 2026-04-22 01:02 | 27.87592 | -81.88025 | 3578 ft | 64 kts | 152° |
| 2026-04-22 01:03 | 27.87247 | -81.87822 | 3641 ft | 54 kts | 128° |
| 2026-04-22 01:03 | 27.86935 | -81.87516 | 3566 ft | 61 kts | 126° |
| 2026-04-22 01:03 | 27.86627 | -81.87233 | 3622 ft | 58 kts | 130° |
| 2026-04-22 01:03 | 27.86280 | -81.86947 | 3597 ft | 60 kts | 133° |
| 2026-04-22 01:04 | 27.85897 | -81.86682 | 3474 ft | 65 kts | 135° |
| 2026-04-22 01:04 | 27.85535 | -81.86417 | 3566 ft | 54 kts | 135° |
| 2026-04-22 01:04 | 27.85207 | -81.86201 | 3836 ft | 58 kts | 131° |
| 2026-04-22 01:04 | 27.84883 | -81.85935 | 4059 ft | 61 kts | 128° |
| 2026-04-22 01:05 | 27.84559 | -81.85546 | 3989 ft | 66 kts | 118° |
| 2026-04-22 01:05 | 27.84223 | -81.85181 | 3852 ft | 65 kts | 126° |
| 2026-04-22 01:05 | 27.83891 | -81.84841 | 3780 ft | 66 kts | 124° |
| 2026-04-22 01:05 | 27.83570 | -81.84459 | 3740 ft | 64 kts | 120° |
| 2026-04-22 01:06 | 27.83227 | -81.84112 | 3739 ft | 66 kts | 131° |
| 2026-04-22 01:06 | 27.82848 | -81.83823 | 3855 ft | 67 kts | 134° |
| 2026-04-22 01:06 | 27.82438 | -81.83506 | 3793 ft | 72 kts | 131° |
| 2026-04-22 01:06 | 27.82050 | -81.83181 | 3798 ft | 68 kts | 132° |
| 2026-04-22 01:07 | 27.81647 | -81.82847 | 3639 ft | 67 kts | 131° |
| 2026-04-22 01:07 | 27.81275 | -81.82544 | 3573 ft | 64 kts | 132° |
| 2026-04-22 01:07 | 27.80950 | -81.82219 | 3736 ft | 64 kts | 126° |
| 2026-04-22 01:07 | 27.80599 | -81.81862 | 3688 ft | 72 kts | 127° |
| 2026-04-22 01:08 | 27.80218 | -81.81514 | 3613 ft | 61 kts | 130° |
| 2026-04-22 01:08 | 27.79830 | -81.81229 | 3543 ft | 70 kts | 137° |
| 2026-04-22 01:08 | 27.79369 | -81.80972 | 3381 ft | 64 kts | 139° |
| 2026-04-22 01:08 | 27.79057 | -81.80653 | 3373 ft | 62 kts | 117° |
| 2026-04-22 01:09 | 27.78829 | -81.80296 | 3460 ft | 50 kts | 115° |
| 2026-04-22 01:09 | 27.78598 | -81.79967 | 3420 ft | 59 kts | 117° |
| 2026-04-22 01:09 | 27.78372 | -81.79627 | 3588 ft | 57 kts | 116° |
| 2026-04-22 01:09 | 27.78080 | -81.79275 | 3647 ft | 63 kts | 119° |
| 2026-04-22 01:10 | 27.77771 | -81.78908 | 3566 ft | 67 kts | 126° |
| 2026-04-22 01:10 | 27.77427 | -81.78564 | 3450 ft | 66 kts | 127° |
| 2026-04-22 01:10 | 27.77100 | -81.78252 | 3462 ft | 60 kts | 127° |
| 2026-04-22 01:10 | 27.76760 | -81.77924 | 3326 ft | 66 kts | 127° |
| 2026-04-22 01:11 | 27.76405 | -81.77562 | 3103 ft | 69 kts | 126° |
| 2026-04-22 01:11 | 27.76196 | -81.77144 | 2958 ft | 59 kts | 89° |
| 2026-04-22 01:11 | 27.76243 | -81.76687 | 2823 ft | 58 kts | 86° |
| 2026-04-22 01:11 | 27.76206 | -81.76227 | 2720 ft | 59 kts | 83° |
| 2026-04-22 01:12 | 27.76303 | -81.75747 | 2698 ft | 66 kts | 78° |
| 2026-04-22 01:12 | 27.76404 | -81.75277 | 2651 ft | 54 kts | 78° |
| 2026-04-22 01:12 | 27.76562 | -81.74903 | 2452 ft | 54 kts | 63° |
| 2026-04-22 01:12 | 27.76696 | -81.74580 | 2443 ft | 46 kts | 72° |
| 2026-04-22 01:13 | 27.76765 | -81.74225 | 2488 ft | 45 kts | 84° |
| 2026-04-22 01:13 | 27.76810 | -81.73886 | 2553 ft | 44 kts | 79° |
| 2026-04-22 01:13 | 27.76951 | -81.73556 | 2480 ft | 50 kts | 70° |
| 2026-04-22 01:13 | 27.77116 | -81.73080 | 2219 ft | 76 kts | 75° |
| 2026-04-22 01:14 | 27.77200 | -81.72532 | 2157 ft | 68 kts | 89° |
| 2026-04-22 01:14 | 27.77204 | -81.72009 | 2043 ft | 65 kts | 92° |
| 2026-04-22 01:14 | 27.77188 | -81.71532 | 1917 ft | 58 kts | 89° |
| 2026-04-22 01:14 | 27.77266 | -81.71084 | 1840 ft | 56 kts | 88° |
| 2026-04-22 01:15 | 27.77225 | -81.70674 | 1975 ft | 54 kts | 98° |
| 2026-04-22 01:15 | 27.77130 | -81.70199 | 1793 ft | 67 kts | 97° |
| 2026-04-22 01:15 | 27.77017 | -81.69727 | 1781 ft | 57 kts | 98° |
| 2026-04-22 01:15 | 27.76983 | -81.69285 | 1727 ft | 60 kts | 89° |
| 2026-04-22 01:16 | 27.76973 | -81.68816 | 1753 ft | 61 kts | 88° |
| 2026-04-22 01:16 | 27.76870 | -81.68338 | 1642 ft | 57 kts | 103° |
| 2026-04-22 01:16 | 27.76818 | -81.67888 | 1524 ft | 64 kts | 78° |
| 2026-04-22 01:16 | 27.76884 | -81.67459 | 1454 ft | 42 kts | 84° |
| 2026-04-22 01:17 | 27.76906 | -81.67093 | 1288 ft | 41 kts | 83° |
| 2026-04-22 01:17 | 27.76905 | -81.66717 | 965 ft | 58 kts | 86° |
| 2026-04-22 01:17 | 27.76858 | -81.66334 | 1042 ft | 53 kts | 93° |
| 2026-04-22 01:17 | 27.76918 | -81.65910 | 760 ft | 54 kts | 62° |
| 2026-04-22 01:18 | 27.77179 | -81.65649 | 584 ft | 55 kts | 47° |
| 2026-04-22 01:18 | 27.77486 | -81.65358 | 480 ft | 55 kts | 43° |
| 2026-04-22 01:18 | 27.77776 | -81.65195 | 375 ft | 42 kts | 26° |
| 2026-04-22 01:18 | 27.78074 | -81.65147 | 253 ft | 44 kts | 11° |
| 2026-04-22 01:19 | 27.78363 | -81.65138 | 159 ft | 35 kts | 21° |
| 2026-04-22 01:19 | 27.78475 | -81.65138 | 138 ft | 3 kts | 6° |
| 2026-04-22 01:19 | 27.78485 | -81.65137 | 138 ft | 1 kts | 359° |